createdAt,value
2023-02-06T00:00:55.422Z,9.45
2023-02-06T00:03:22.623Z,9.98
2023-02-06T00:05:49.841Z,10.73
2023-02-06T00:08:16.902Z,9.90
2023-02-06T00:10:44.342Z,11.52
2023-02-06T00:13:11.386Z,9.55
2023-02-06T00:15:39.609Z,9.75
2023-02-06T00:18:07.038Z,10.65
2023-02-06T00:20:34.083Z,11.82
2023-02-06T00:23:01.261Z,11.98
2023-02-06T00:25:28.335Z,10.27
2023-02-06T00:27:55.311Z,10.95
2023-02-06T00:30:22.539Z,11.27
2023-02-06T00:32:49.774Z,11.70
2023-02-06T00:35:16.846Z,10.88
2023-02-06T00:37:44.022Z,11.23
2023-02-06T00:40:10.985Z,10.32
2023-02-06T00:42:38.036Z,9.90
2023-02-06T00:45:05.140Z,13.80
2023-02-06T00:47:32.208Z,13.95
2023-02-06T00:49:59.315Z,13.65
2023-02-06T00:52:26.486Z,12.60
2023-02-06T00:54:53.528Z,12.02
2023-02-06T00:57:20.712Z,12.82
2023-02-06T00:59:48.005Z,11.30
2023-02-06T01:02:15.141Z,13.73
2023-02-06T01:04:42.355Z,15.82
2023-02-06T01:07:09.578Z,12.80
2023-02-06T01:09:36.699Z,14.85
2023-02-06T01:12:03.797Z,17.80
2023-02-06T01:14:30.887Z,14.52
2023-02-06T01:16:57.936Z,15.63
2023-02-06T01:19:25.268Z,12.25
2023-02-06T01:21:52.642Z,14.13
2023-02-06T01:24:19.952Z,12.27
2023-02-06T01:26:47.086Z,14.00
2023-02-06T01:29:14.432Z,10.95
2023-02-06T01:31:41.504Z,12.73
2023-02-06T01:34:08.584Z,10.55
2023-02-06T01:36:35.762Z,12.40
2023-02-06T01:39:02.871Z,11.30
2023-02-06T01:41:29.924Z,9.32
2023-02-06T01:43:57.152Z,11.60
2023-02-06T01:46:24.133Z,11.07
2023-02-06T01:48:51.233Z,13.43
2023-02-06T01:51:18.325Z,10.45
2023-02-06T01:53:45.429Z,7.97
2023-02-06T01:56:13.145Z,11.07
2023-02-06T01:58:40.368Z,10.85
2023-02-06T02:01:07.576Z,11.88
2023-02-06T02:03:34.730Z,9.40
2023-02-06T02:06:01.799Z,12.68
2023-02-06T02:08:28.989Z,9.38
2023-02-06T02:10:56.240Z,10.98
2023-02-06T02:13:23.427Z,8.23
2023-02-06T02:15:50.635Z,9.93
2023-02-06T02:18:17.646Z,12.10
2023-02-06T02:20:44.810Z,10.27
2023-02-06T02:23:11.938Z,11.80
2023-02-06T02:25:39.048Z,10.50
2023-02-06T02:28:06.076Z,8.90
2023-02-06T02:30:33.308Z,13.82
2023-02-06T02:33:00.435Z,11.27
2023-02-06T02:35:27.501Z,8.88
2023-02-06T02:37:54.554Z,11.30
2023-02-06T02:40:21.744Z,13.32
2023-02-06T02:42:48.778Z,8.02
2023-02-06T02:45:15.955Z,9.43
2023-02-06T02:47:43.003Z,11.00
2023-02-06T02:50:10.082Z,9.93
2023-02-06T02:52:37.204Z,9.85
2023-02-06T02:55:04.252Z,9.32
2023-02-06T02:57:31.310Z,9.18
2023-02-06T02:59:58.536Z,11.38
2023-02-06T03:02:25.528Z,10.07
2023-02-06T03:04:52.717Z,9.70
2023-02-06T03:07:19.901Z,8.75
2023-02-06T03:09:47.117Z,9.25
2023-02-06T03:12:14.173Z,10.38
2023-02-06T03:14:41.425Z,8.52
2023-02-06T03:17:08.691Z,7.78
2023-02-06T03:19:35.767Z,8.77
2023-02-06T03:22:02.835Z,9.02
2023-02-06T03:24:29.863Z,10.02
2023-02-06T03:26:57.064Z,11.20
2023-02-06T03:29:24.192Z,9.95
2023-02-06T03:31:51.404Z,8.70
2023-02-06T03:34:18.910Z,9.45
2023-02-06T03:36:46.097Z,8.27
2023-02-06T03:39:13.077Z,9.85
2023-02-06T03:41:40.209Z,11.93
2023-02-06T03:44:07.345Z,7.22
2023-02-06T03:46:34.402Z,8.80
2023-02-06T03:49:01.516Z,7.40
2023-02-06T03:51:28.526Z,8.85
2023-02-06T03:53:55.641Z,10.13
2023-02-06T03:56:22.699Z,8.40
2023-02-06T03:58:49.776Z,7.68
2023-02-06T04:01:16.923Z,8.63
2023-02-06T04:03:44.235Z,11.10
2023-02-06T04:06:11.350Z,8.05
2023-02-06T04:08:38.582Z,9.77
2023-02-06T04:11:05.697Z,11.82
2023-02-06T04:13:32.976Z,10.63
2023-02-06T04:15:59.906Z,10.07
2023-02-06T04:18:26.900Z,12.57
2023-02-06T04:20:54.193Z,8.85
2023-02-06T04:23:21.226Z,11.65
2023-02-06T04:25:48.145Z,8.77
2023-02-06T04:28:15.366Z,8.45
2023-02-06T04:30:42.322Z,9.65
2023-02-06T04:33:09.582Z,11.07
2023-02-06T04:35:37.027Z,12.63
2023-02-06T04:38:04.267Z,9.48
2023-02-06T04:40:31.425Z,9.93
2023-02-06T04:42:58.823Z,11.50
2023-02-06T04:45:25.932Z,10.23
2023-02-06T04:47:53.301Z,10.02
2023-02-06T04:50:20.643Z,8.68
2023-02-06T04:52:47.609Z,9.35
2023-02-06T04:55:14.788Z,10.98
2023-02-06T04:57:41.950Z,8.90
2023-02-06T05:00:09.685Z,9.52
2023-02-06T05:02:40.027Z,11.55
2023-02-06T05:05:07.173Z,10.70
2023-02-06T05:07:34.306Z,10.30
2023-02-06T05:10:01.472Z,9.45
2023-02-06T05:12:29.778Z,8.15
2023-02-06T05:14:56.770Z,8.63
2023-02-06T05:17:23.902Z,8.80
2023-02-06T05:19:51.017Z,10.95
2023-02-06T05:22:18.198Z,10.27
2023-02-06T05:24:45.217Z,7.88
2023-02-06T05:27:12.441Z,11.13
2023-02-06T05:29:39.529Z,11.95
2023-02-06T05:32:06.700Z,10.43
2023-02-06T05:34:33.936Z,10.93
2023-02-06T05:37:00.970Z,8.82
2023-02-06T05:39:28.311Z,8.82
2023-02-06T05:41:55.440Z,8.50
2023-02-06T05:44:22.592Z,14.88
2023-02-06T05:46:49.849Z,10.23
2023-02-06T05:49:17.016Z,10.93
2023-02-06T05:51:44.208Z,9.48
2023-02-06T05:54:11.522Z,10.18
2023-02-06T05:56:38.729Z,9.93
2023-02-06T05:59:05.922Z,8.88
2023-02-06T06:01:33.096Z,11.32
2023-02-06T06:04:00.459Z,9.35
2023-02-06T06:06:27.602Z,10.65
2023-02-06T06:08:54.806Z,9.82
2023-02-06T06:11:22.159Z,9.85
2023-02-06T06:13:49.232Z,8.93
2023-02-06T06:16:16.454Z,9.60
2023-02-06T06:18:43.493Z,8.60
2023-02-06T06:21:10.673Z,8.27
2023-02-06T06:23:37.821Z,9.32
2023-02-06T06:26:04.882Z,9.25
2023-02-06T06:28:32.192Z,9.23
2023-02-06T06:30:59.386Z,9.73
2023-02-06T06:33:26.616Z,9.20
2023-02-06T06:35:53.798Z,8.55
2023-02-06T06:38:23.770Z,10.27
2023-02-06T06:40:51.047Z,11.00
2023-02-06T06:43:18.377Z,11.52
2023-02-06T06:45:45.636Z,11.27
2023-02-06T06:48:12.802Z,9.40
2023-02-06T06:50:39.992Z,10.32
2023-02-06T06:53:07.218Z,9.43
2023-02-06T06:55:34.789Z,10.90
2023-02-06T06:58:02.060Z,8.82
2023-02-06T07:00:29.292Z,12.75
2023-02-06T07:02:56.286Z,11.45
2023-02-06T07:05:23.435Z,10.85
2023-02-06T07:07:50.497Z,10.77
2023-02-06T07:10:20.425Z,13.57
2023-02-06T07:12:48.585Z,12.00
2023-02-06T07:15:15.780Z,10.48
2023-02-06T07:17:42.999Z,13.10
2023-02-06T07:20:10.180Z,13.32
2023-02-06T07:22:37.418Z,11.98
2023-02-06T07:25:04.682Z,10.20
2023-02-06T07:27:31.918Z,9.82
2023-02-06T07:30:00.124Z,12.10
2023-02-06T07:32:27.325Z,9.85
2023-02-06T07:34:54.659Z,13.70
2023-02-06T07:37:21.868Z,11.57
2023-02-06T07:39:48.999Z,11.30
2023-02-06T07:42:16.508Z,11.30
2023-02-06T07:44:43.582Z,10.95
2023-02-06T07:47:10.675Z,14.40
2023-02-06T07:49:38.929Z,15.23
2023-02-06T07:52:06.288Z,12.02
2023-02-06T07:54:36.074Z,15.20
2023-02-06T07:57:03.433Z,10.43
2023-02-06T07:59:33.698Z,12.25
2023-02-06T08:02:01.490Z,17.20
2023-02-06T08:04:35.535Z,11.98
2023-02-06T08:07:02.708Z,13.50
2023-02-06T08:09:29.859Z,12.50
2023-02-06T08:11:57.010Z,11.90
2023-02-06T08:14:24.362Z,12.38
2023-02-06T08:16:51.990Z,11.95
2023-02-06T08:19:19.159Z,9.90
2023-02-06T08:21:46.430Z,12.25
2023-02-06T08:24:13.550Z,11.20
2023-02-06T08:26:40.719Z,9.93
2023-02-06T08:29:08.051Z,10.07
2023-02-06T08:31:35.322Z,10.52
2023-02-06T08:34:02.586Z,10.23
2023-02-06T08:36:30.348Z,9.82
2023-02-06T08:38:57.518Z,11.20
2023-02-06T08:41:27.520Z,9.07
2023-02-06T08:43:56.815Z,10.32
2023-02-06T08:46:23.989Z,8.65
2023-02-06T08:48:51.146Z,9.95
2023-02-06T08:51:18.783Z,7.88
2023-02-06T08:53:46.001Z,10.27
2023-02-06T08:56:13.281Z,11.18
2023-02-06T08:58:43.224Z,7.85
2023-02-06T09:01:10.455Z,9.52
2023-02-06T09:03:37.701Z,9.50
2023-02-06T09:06:09.922Z,14.43
2023-02-06T09:08:37.830Z,10.95
2023-02-06T09:11:06.796Z,10.40
2023-02-06T09:13:34.041Z,9.32
2023-02-06T09:16:01.372Z,12.95
2023-02-06T09:18:28.430Z,11.15
2023-02-06T09:20:57.473Z,9.25
2023-02-06T09:26:22.601Z,9.77
2023-02-06T09:29:00.495Z,11.13
2023-02-06T09:31:27.699Z,9.05
2023-02-06T09:33:54.887Z,8.48
2023-02-06T09:36:21.868Z,12.13
2023-02-06T09:38:48.867Z,9.40
2023-02-06T09:41:16.041Z,13.60
2023-02-06T09:43:43.909Z,11.32
2023-02-06T09:46:13.650Z,11.20
2023-02-06T09:48:40.744Z,11.27
2023-02-06T09:51:07.882Z,10.52
2023-02-06T09:53:34.730Z,7.50
2023-02-06T09:56:01.434Z,11.45
2023-02-06T09:58:28.102Z,10.77
2023-02-06T10:00:54.750Z,11.25
2023-02-06T10:03:21.444Z,10.38
2023-02-06T10:05:48.124Z,10.10
2023-02-06T10:08:14.730Z,10.00
2023-02-06T10:10:41.316Z,10.82
2023-02-06T10:13:07.989Z,9.43
2023-02-06T10:15:35.042Z,9.48
2023-02-06T10:18:01.884Z,9.45
2023-02-06T10:20:28.547Z,9.52
2023-02-06T10:22:55.209Z,8.80
2023-02-06T10:25:22.303Z,8.95
2023-02-06T10:27:48.982Z,9.73
2023-02-06T10:30:15.611Z,7.38
2023-02-06T10:32:42.229Z,8.07
2023-02-06T10:35:08.867Z,8.48
2023-02-06T10:37:35.542Z,7.28
2023-02-06T10:40:02.202Z,7.38
2023-02-06T10:42:28.882Z,5.72
2023-02-06T10:44:58.130Z,7.75
2023-02-06T10:47:28.052Z,7.07
2023-02-06T10:49:55.394Z,6.75
2023-02-06T10:52:23.014Z,6.22
2023-02-06T10:54:49.757Z,6.90
2023-02-06T10:57:16.531Z,4.57
2023-02-06T10:59:43.234Z,5.10
2023-02-06T11:02:10.028Z,3.78
2023-02-06T11:04:36.665Z,3.75
2023-02-06T11:07:03.245Z,4.82
2023-02-06T11:09:29.875Z,4.30
2023-02-06T11:11:56.521Z,2.95
2023-02-06T11:14:24.942Z,3.72
2023-02-06T11:16:51.811Z,4.13
2023-02-06T11:19:18.487Z,2.83
2023-02-06T11:21:45.242Z,3.03
2023-02-06T11:24:11.888Z,3.50
2023-02-06T11:26:38.549Z,4.28
2023-02-06T11:29:05.196Z,3.00
2023-02-06T11:31:31.909Z,3.83
2023-02-06T11:33:58.654Z,3.85
2023-02-06T11:36:25.245Z,4.38
2023-02-06T11:38:51.845Z,2.85
2023-02-06T11:41:18.488Z,3.00
2023-02-06T11:43:46.337Z,3.33
2023-02-06T11:46:15.166Z,4.32
2023-02-06T11:48:41.921Z,4.13
2023-02-06T11:51:08.605Z,7.57
2023-02-06T11:53:35.297Z,3.13
2023-02-06T11:56:02.005Z,5.50
2023-02-06T11:58:28.691Z,3.83
2023-02-06T12:00:55.461Z,3.50
2023-02-06T12:03:22.116Z,3.90
2023-02-06T12:05:48.817Z,3.78
2023-02-06T12:08:15.457Z,2.95
2023-02-06T12:10:42.223Z,3.95
2023-02-06T12:13:08.902Z,4.22
2023-02-06T12:15:46.556Z,3.55
2023-02-06T12:18:13.875Z,3.33
2023-02-06T12:20:40.592Z,3.47
2023-02-06T12:23:07.277Z,3.40
2023-02-06T12:25:34.675Z,4.72
2023-02-06T12:28:05.508Z,3.58
2023-02-06T12:30:32.208Z,3.30
2023-02-06T12:32:58.794Z,2.20
2023-02-06T12:35:25.382Z,3.20
2023-02-06T12:37:52.068Z,3.00
2023-02-06T12:40:18.717Z,3.55
2023-02-06T12:42:45.413Z,5.90
2023-02-06T12:45:12.084Z,3.65
2023-02-06T12:47:38.720Z,3.38
2023-02-06T12:50:05.402Z,3.33
2023-02-06T12:52:32.004Z,2.25
2023-02-06T12:54:58.627Z,3.38
2023-02-06T12:57:25.306Z,4.18
2023-02-06T12:59:58.027Z,5.35
2023-02-06T13:02:26.199Z,5.00
2023-02-06T13:04:52.894Z,2.83
2023-02-06T13:07:19.561Z,3.25
2023-02-06T13:09:46.238Z,3.45
2023-02-06T13:12:13.252Z,2.75
2023-02-06T13:14:40.133Z,3.05
2023-02-06T13:17:16.758Z,2.72
2023-02-06T13:19:43.445Z,3.22
2023-02-06T13:22:10.106Z,2.05
2023-02-06T13:24:36.826Z,2.83
2023-02-06T13:27:03.520Z,3.15
2023-02-06T13:29:30.299Z,3.05
2023-02-06T13:31:59.592Z,3.15
2023-02-06T13:34:26.527Z,3.22
2023-02-06T13:36:53.301Z,3.55
2023-02-06T13:39:20.189Z,4.13
2023-02-06T13:41:46.789Z,3.78
2023-02-06T13:44:13.460Z,5.13
2023-02-06T13:46:40.155Z,4.72
2023-02-06T13:49:06.864Z,4.03
2023-02-06T13:51:33.565Z,4.63
2023-02-06T13:54:00.357Z,4.20
2023-02-06T13:56:27.102Z,2.95
2023-02-06T13:58:53.765Z,2.30
2023-02-06T14:01:20.467Z,2.03
2023-02-06T14:03:47.299Z,2.83
2023-02-06T14:06:14.576Z,2.67
2023-02-06T14:08:41.760Z,2.55
2023-02-06T14:11:08.432Z,3.08
2023-02-06T14:13:35.106Z,2.63
2023-02-06T14:16:02.045Z,2.55
2023-02-06T14:18:28.711Z,3.15
2023-02-06T14:20:55.342Z,4.03
2023-02-06T14:23:22.088Z,3.88
2023-02-06T14:25:49.215Z,3.05
2023-02-06T14:28:15.973Z,3.22
2023-02-06T14:30:43.993Z,3.50
2023-02-06T14:33:10.719Z,2.85
2023-02-06T14:35:37.812Z,3.10
2023-02-06T14:38:04.631Z,3.28
2023-02-06T14:40:31.588Z,3.03
2023-02-06T14:42:58.332Z,2.53
2023-02-06T14:45:25.075Z,3.78
2023-02-06T14:47:51.768Z,2.53
2023-02-06T14:50:18.482Z,1.95
2023-02-06T14:52:45.250Z,2.42
2023-02-06T14:55:11.951Z,2.65
2023-02-06T14:57:39.304Z,2.60
2023-02-06T15:00:06.101Z,3.83
2023-02-06T15:02:32.730Z,2.67
2023-02-06T15:04:59.477Z,2.03
2023-02-06T15:07:26.169Z,2.55
2023-02-06T15:09:52.823Z,3.63
2023-02-06T15:12:19.487Z,2.25
2023-02-06T15:14:46.135Z,2.47
2023-02-06T15:17:12.894Z,2.97
2023-02-06T15:19:39.664Z,2.70
2023-02-06T15:22:06.358Z,2.42
2023-02-06T15:24:33.083Z,2.33
2023-02-06T15:26:59.870Z,2.53
2023-02-06T15:29:29.764Z,2.78
2023-02-06T15:31:56.535Z,2.55
2023-02-06T15:34:23.212Z,2.67
2023-02-06T15:36:49.896Z,2.30
2023-02-06T15:39:16.702Z,2.95
2023-02-06T15:41:43.364Z,3.53
2023-02-06T15:44:10.031Z,3.33
2023-02-06T15:46:36.754Z,1.70
2023-02-06T15:49:03.540Z,2.38
2023-02-06T15:51:30.332Z,2.80
2023-02-06T15:53:57.047Z,3.55
2023-02-06T15:56:23.692Z,3.70
2023-02-06T15:58:50.344Z,2.20
2023-02-06T16:01:17.097Z,2.75
2023-02-06T16:03:43.733Z,3.00
2023-02-06T16:06:10.937Z,2.70
2023-02-06T16:08:39.352Z,3.30
2023-02-06T16:11:25.957Z,2.30
2023-02-06T16:13:52.650Z,6.55
2023-02-06T16:16:20.275Z,4.18
2023-02-06T16:18:47.004Z,3.72
2023-02-06T16:21:13.757Z,5.03
2023-02-06T16:23:40.448Z,6.05
2023-02-06T16:26:10.122Z,4.53
2023-02-06T16:28:36.820Z,6.95
2023-02-06T16:31:04.590Z,5.78
2023-02-06T16:33:31.411Z,5.72
2023-02-06T16:35:58.322Z,6.88
2023-02-06T16:38:25.109Z,6.03
2023-02-06T16:40:54.817Z,5.55
2023-02-06T16:43:21.660Z,3.50
2023-02-06T16:45:49.281Z,5.15
2023-02-06T16:48:17.464Z,7.05
2023-02-06T16:50:44.251Z,5.38
2023-02-06T16:53:11.092Z,6.00
2023-02-06T16:55:37.927Z,4.65
2023-02-06T16:58:04.766Z,5.88
2023-02-06T17:00:31.649Z,5.28
2023-02-06T17:02:58.470Z,5.63
2023-02-06T17:05:25.294Z,5.88
2023-02-06T17:07:52.042Z,5.20
2023-02-06T17:10:19.904Z,6.55
2023-02-06T17:12:46.806Z,4.80
2023-02-06T17:15:13.678Z,5.20
2023-02-06T17:17:40.395Z,5.35
2023-02-06T17:20:08.304Z,5.70
2023-02-06T17:22:35.487Z,5.82
2023-02-06T17:25:02.201Z,5.82
2023-02-06T17:27:29.656Z,5.03
2023-02-06T17:29:56.415Z,4.20
2023-02-06T17:32:23.265Z,5.97
2023-02-06T17:34:49.896Z,4.50
2023-02-06T17:37:22.659Z,6.32
2023-02-06T17:39:49.455Z,4.35
2023-02-06T17:42:16.399Z,5.03
2023-02-06T17:44:43.124Z,12.73
2023-02-06T17:47:09.828Z,10.20
2023-02-06T17:49:36.470Z,11.15
2023-02-06T17:52:03.199Z,8.65
2023-02-06T17:54:29.762Z,7.43
2023-02-06T17:56:56.464Z,7.45
2023-02-06T17:59:23.112Z,5.60
2023-02-06T18:01:49.772Z,5.05
2023-02-06T18:04:19.720Z,6.75
2023-02-06T18:06:46.424Z,5.45
2023-02-06T18:09:13.243Z,5.50
2023-02-06T18:11:39.870Z,5.63
2023-02-06T18:14:06.623Z,5.45
2023-02-06T18:16:33.843Z,8.85
2023-02-06T18:19:00.603Z,11.25
2023-02-06T18:21:29.708Z,14.15
2023-02-06T18:23:56.474Z,14.32
2023-02-06T18:26:24.364Z,20.13
2023-02-06T18:28:51.159Z,20.25
2023-02-06T18:31:17.904Z,18.48
2023-02-06T18:33:44.559Z,17.48
2023-02-06T18:36:11.505Z,17.30
2023-02-06T18:38:38.519Z,18.48
2023-02-06T18:41:05.251Z,13.73
2023-02-06T18:43:31.959Z,11.38
2023-02-06T18:45:58.599Z,16.02
2023-02-06T18:48:25.180Z,15.95
2023-02-06T18:50:58.535Z,15.50
2023-02-06T18:53:25.531Z,12.27
2023-02-06T18:55:52.248Z,13.82
2023-02-06T18:58:18.886Z,11.90
2023-02-06T19:00:45.656Z,11.75
2023-02-06T19:03:12.480Z,12.30
2023-02-06T19:05:39.212Z,10.07
2023-02-06T19:08:05.974Z,11.60
2023-02-06T19:10:32.641Z,9.15
2023-02-06T19:12:59.334Z,9.25
2023-02-06T19:15:26.244Z,10.13
2023-02-06T19:17:52.992Z,12.05
2023-02-06T19:20:19.656Z,9.55
2023-02-06T19:22:46.386Z,8.70
2023-02-06T19:25:14.536Z,9.07
2023-02-06T19:27:41.573Z,9.80
2023-02-06T19:30:10.941Z,8.38
2023-02-06T19:32:37.707Z,10.93
2023-02-06T19:35:04.505Z,10.77
2023-02-06T19:37:31.266Z,9.77
2023-02-06T19:40:03.761Z,10.55
2023-02-06T19:42:30.455Z,10.80
2023-02-06T19:44:57.270Z,10.48
2023-02-06T19:47:24.019Z,12.40
2023-02-06T19:49:51.496Z,14.52
2023-02-06T19:52:18.758Z,12.85
2023-02-06T19:54:47.890Z,15.05
2023-02-06T19:57:15.070Z,17.33
2023-02-06T19:59:42.149Z,18.73
2023-02-06T20:02:08.784Z,16.50
2023-02-06T20:04:37.786Z,19.33
2023-02-06T20:07:07.003Z,21.75
2023-02-06T20:09:33.659Z,25.10
2023-02-06T20:12:00.343Z,23.38
2023-02-06T20:14:27.206Z,22.48
2023-02-06T20:16:54.145Z,20.75
2023-02-06T20:19:20.887Z,22.48
2023-02-06T20:21:47.612Z,21.13
2023-02-06T20:24:14.234Z,19.17
2023-02-06T20:26:40.883Z,19.63
2023-02-06T20:29:07.801Z,21.65
2023-02-06T20:31:34.745Z,16.42
2023-02-06T20:34:03.591Z,21.25
2023-02-06T20:36:31.108Z,15.55
2023-02-06T20:38:57.967Z,17.48
2023-02-06T20:41:24.703Z,16.77
2023-02-06T20:43:51.401Z,12.63
2023-02-06T20:46:18.166Z,13.20
2023-02-06T20:48:45.715Z,11.20
2023-02-06T20:51:12.451Z,11.13
2023-02-06T20:53:39.159Z,11.90
2023-02-06T20:56:07.033Z,11.55
2023-02-06T20:58:33.770Z,10.45
2023-02-06T21:01:00.523Z,10.07
2023-02-06T21:03:27.241Z,11.50
2023-02-06T21:05:53.944Z,10.65
2023-02-06T21:08:20.628Z,8.85
2023-02-06T21:10:47.320Z,10.05
2023-02-06T21:13:14.060Z,14.18
2023-02-06T21:15:40.871Z,12.52
2023-02-06T21:18:07.590Z,13.45
2023-02-06T21:20:34.314Z,9.75
2023-02-06T21:23:01.036Z,11.65
2023-02-06T21:25:27.717Z,11.73
2023-02-06T21:27:54.431Z,14.43
2023-02-06T21:30:21.178Z,9.93
2023-02-06T21:32:47.917Z,12.13
2023-02-06T21:35:14.663Z,12.40
2023-02-06T21:37:41.477Z,11.30
2023-02-06T21:40:08.244Z,14.68
2023-02-06T21:42:34.878Z,25.55
2023-02-06T21:45:01.600Z,17.95
2023-02-06T21:47:28.265Z,13.88
2023-02-06T21:49:55.004Z,14.35
2023-02-06T21:52:21.848Z,12.00
2023-02-06T21:54:48.479Z,15.65
2023-02-06T21:57:15.212Z,16.00
2023-02-06T21:59:42.278Z,11.75
2023-02-06T22:02:09.068Z,11.35
2023-02-06T22:04:35.814Z,13.20
2023-02-06T22:07:02.579Z,10.40
2023-02-06T22:09:29.346Z,10.75
2023-02-06T22:11:56.041Z,13.70
2023-02-06T22:14:22.718Z,10.88
2023-02-06T22:16:49.637Z,9.20
2023-02-06T22:19:16.489Z,10.90
2023-02-06T22:21:43.106Z,13.15
2023-02-06T22:24:09.853Z,9.05
2023-02-06T22:26:38.763Z,11.57
2023-02-06T22:29:05.558Z,11.27
2023-02-06T22:31:32.243Z,9.70
2023-02-06T22:33:58.922Z,9.93
2023-02-06T22:36:25.622Z,10.30
2023-02-06T22:38:52.241Z,7.38
2023-02-06T22:41:19.084Z,8.82
2023-02-06T22:43:45.818Z,8.15
2023-02-06T22:46:12.500Z,7.78
2023-02-06T22:48:39.127Z,12.13
2023-02-06T22:51:06.149Z,11.02
2023-02-06T22:53:32.886Z,8.32
2023-02-06T22:56:18.461Z,12.00
2023-02-06T22:58:45.167Z,9.98
2023-02-06T23:01:11.863Z,10.43
2023-02-06T23:03:38.572Z,8.88
2023-02-06T23:06:05.515Z,9.60
2023-02-06T23:08:32.179Z,9.80
2023-02-06T23:10:58.884Z,9.40
2023-02-06T23:13:25.544Z,8.25
2023-02-06T23:15:52.299Z,8.90
2023-02-06T23:18:18.929Z,9.35
2023-02-06T23:20:45.580Z,11.52
2023-02-06T23:23:12.213Z,9.68
2023-02-06T23:25:39.164Z,9.98
2023-02-06T23:28:05.972Z,12.20
2023-02-06T23:30:32.720Z,10.35
2023-02-06T23:32:59.544Z,11.05
2023-02-06T23:35:26.216Z,11.23
2023-02-06T23:37:52.933Z,13.23
2023-02-06T23:40:19.700Z,9.93
2023-02-06T23:42:46.419Z,9.43
2023-02-06T23:45:13.090Z,8.63
2023-02-06T23:47:39.717Z,10.13
2023-02-06T23:50:06.744Z,10.93
2023-02-06T23:52:33.370Z,10.20
2023-02-06T23:55:00.017Z,10.32
2023-02-06T23:57:26.773Z,13.25
2023-02-06T23:59:53.426Z,13.45
